Time;durP1;ratioP1;P1;durP2;ratioP2;P2;SDS_P1;SDS_P2;PMS_P1;PMS_P2;Temp;Humidity;BMP_temperature;BMP_pressure;BME280_temperature;BME280_humidity;BME280_pressure;Samples;Min_cycle;Max_cycle;Signal;HPM_P1;HPM_P2
2022/09/09 00:00:24;;;;;;;17.17;10.65;;;13.60;99.90;;;;;;5059325;28;20049;-68
2022/09/09 00:03:17;;;;;;;17.98;9.82;;;13.60;99.90;;;;;;5057597;28;20044;-68
2022/09/09 00:05:55;;;;;;;;;;;13.50;99.90;;;;;;5054051;28;20036;-70
2022/09/09 00:08:29;;;;;;;13.48;9.27;;;13.60;99.90;;;;;;5044926;28;19920;-69
2022/09/09 00:11:00;;;;;;;17.20;10.35;;;13.50;99.90;;;;;;5071741;28;20471;-69
2022/09/09 00:13:46;;;;;;;15.48;8.82;;;13.40;99.90;;;;;;5055677;28;20605;-69
2022/09/09 00:16:30;;;;;;;11.95;8.77;;;13.60;99.90;;;;;;5055336;28;20041;-68
2022/09/09 00:19:29;;;;;;;13.77;8.68;;;13.50;99.90;;;;;;5051531;28;20038;-68
2022/09/09 00:22:17;;;;;;;13.43;8.70;;;13.40;99.90;;;;;;5055169;28;20044;-69
2022/09/09 00:24:56;;;;;;;12.75;9.02;;;13.40;99.90;;;;;;5059793;28;20138;-69
2022/09/09 00:27:44;;;;;;;17.50;9.60;;;13.60;99.90;;;;;;5055332;28;20076;-69
2022/09/09 00:30:18;;;;;;;18.45;10.35;;;13.40;99.90;;;;;;5054320;28;20641;-69
2022/09/09 00:32:44;;;;;;;16.13;10.60;;;13.60;99.90;;;;;;5058870;28;20564;-69
2022/09/09 00:35:09;;;;;;;18.25;9.95;;;13.50;99.90;;;;;;5056431;28;20048;-69
2022/09/09 00:37:35;;;;;;;16.27;10.00;;;13.60;99.90;;;;;;5060818;28;20491;-68
2022/09/09 00:40:16;;;;;;;17.38;10.70;;;13.60;99.90;;;;;;5054896;28;20530;-68
2022/09/09 00:42:43;;;;;;;21.50;10.32;;;13.60;99.90;;;;;;5053139;28;20066;-68
2022/09/09 00:45:33;;;;;;;17.35;10.05;;;13.50;99.90;;;;;;5051204;28;20083;-68
2022/09/09 00:48:08;;;;;;;18.52;10.07;;;13.60;99.90;;;;;;5064255;28;20032;-68
2022/09/09 00:50:34;;;;;;;17.83;10.57;;;13.50;99.90;;;;;;5043833;28;20059;-68
2022/09/09 00:53:03;;;;;;;16.10;9.65;;;13.50;99.90;;;;;;5054449;28;20044;-68
2022/09/09 00:55:44;;;;;;;19.00;10.23;;;13.50;99.90;;;;;;5058394;28;20056;-68
2022/09/09 00:58:10;;;;;;;16.63;9.65;;;13.70;99.90;;;;;;5046121;28;20040;-68
2022/09/09 01:00:49;;;;;;;16.45;9.43;;;13.60;99.90;;;;;;5043460;28;20055;-68
2022/09/09 01:03:34;;;;;;;15.18;11.00;;;13.70;99.90;;;;;;5048889;28;20036;-68
2022/09/09 01:06:22;;;;;;;25.50;11.23;;;13.60;99.90;;;;;;5063698;28;20056;-68
2022/09/09 01:09:36;;;;;;;30.60;11.30;;;13.60;99.90;;;;;;5058581;28;20425;-68
2022/09/09 01:12:24;;;;;;;16.48;10.13;;;13.70;99.90;;;;;;5031477;28;20084;-68
2022/09/09 01:14:54;;;;;;;19.50;11.05;;;13.80;99.90;;;;;;5045243;28;20041;-68
2022/09/09 01:17:34;;;;;;;28.55;12.57;;;13.80;99.90;;;;;;5049390;28;20505;-68
2022/09/09 01:20:17;;;;;;;24.08;11.70;;;13.70;99.90;;;;;;5044919;28;21449;-68
2022/09/09 01:23:11;;;;;;;26.67;11.52;;;13.80;99.90;;;;;;5069547;28;20182;-68
2022/09/09 01:26:04;;;;;;;35.28;12.50;;;14.00;99.90;;;;;;5071139;28;20452;-68
2022/09/09 01:28:32;;;;;;;22.23;10.68;;;14.00;99.90;;;;;;5061895;28;20029;-69
2022/09/09 01:30:59;;;;;;;21.05;11.23;;;13.90;99.90;;;;;;5057118;28;20068;-68
2022/09/09 01:33:25;;;;;;;30.38;11.38;;;13.90;99.90;;;;;;5059420;28;20199;-73
2022/09/09 01:35:57;;;;;;;30.42;12.05;;;14.10;99.90;;;;;;5058734;28;20177;-78
2022/09/09 01:38:24;;;;;;;;;;;13.90;99.90;;;;;;5063759;28;20475;-79
2022/09/09 01:40:52;;;;;;;40.63;13.07;;;14.00;99.90;;;;;;5060684;28;20597;-79
2022/09/09 01:43:22;;;;;;;43.97;14.95;;;14.10;99.90;;;;;;5065493;28;20041;-76
2022/09/09 01:45:52;;;;;;;24.30;12.88;;;14.10;99.90;;;;;;5052943;28;20029;-76
2022/09/09 01:48:18;;;;;;;23.15;12.05;;;14.00;99.90;;;;;;5061690;28;20119;-75
2022/09/09 01:50:44;;;;;;;26.73;13.27;;;14.20;99.90;;;;;;5047346;28;20076;-73
2022/09/09 01:53:11;;;;;;;34.28;13.75;;;14.20;99.90;;;;;;5053648;28;20122;-76
2022/09/09 01:55:45;;;;;;;23.70;11.18;;;14.10;99.90;;;;;;5060967;28;20032;-78
2022/09/09 01:58:34;;;;;;;24.00;11.07;;;14.20;99.90;;;;;;5048183;28;20057;-77
2022/09/09 02:01:25;;;;;;;24.67;11.68;;;14.10;99.90;;;;;;5052288;28;20427;-71
2022/09/09 02:03:55;;;;;;;17.75;10.02;;;14.10;99.90;;;;;;5049102;28;20373;-71
2022/09/09 02:06:40;;;;;;;20.45;10.75;;;14.20;99.90;;;;;;5040572;28;20044;-69
2022/09/09 02:09:11;;;;;;;21.95;11.48;;;14.20;99.90;;;;;;5055480;28;20036;-70
2022/09/09 02:11:37;;;;;;;22.40;10.25;;;14.20;99.90;;;;;;5045061;28;20569;-71
2022/09/09 02:14:09;;;;;;;19.25;10.43;;;14.10;99.90;;;;;;5054035;28;20490;-69
2022/09/09 02:16:35;;;;;;;;;;;14.30;99.90;;;;;;5068157;28;20394;-69
2022/09/09 02:19:08;;;;;;;25.88;11.10;;;14.30;99.90;;;;;;5047246;28;19925;-69
2022/09/09 02:21:36;;;;;;;21.33;9.45;;;14.20;99.90;;;;;;5048833;28;20041;-69
2022/09/09 02:24:08;;;;;;;19.60;9.65;;;14.20;99.90;;;;;;5064886;28;20400;-69
2022/09/09 02:26:35;;;;;;;;;;;14.30;99.90;;;;;;5051015;28;20036;-68
2022/09/09 02:29:05;;;;;;;22.45;9.75;;;14.10;99.90;;;;;;5048298;28;19974;-68
2022/09/09 02:31:35;;;;;;;23.27;10.20;;;14.30;99.90;;;;;;5050024;28;20068;-68
2022/09/09 02:34:03;;;;;;;26.15;10.65;;;14.30;99.90;;;;;;5050694;28;20037;-68
2022/09/09 02:36:33;;;;;;;22.08;10.25;;;14.10;99.90;;;;;;5050822;28;20098;-68
2022/09/09 02:39:00;;;;;;;26.70;10.60;;;14.30;99.90;;;;;;5037509;28;20052;-68
2022/09/09 02:41:31;;;;;;;27.70;10.80;;;14.40;99.90;;;;;;5043187;28;20079;-68
2022/09/09 02:43:57;;;;;;;21.27;10.68;;;14.40;99.90;;;;;;5047304;28;20529;-68
2022/09/09 02:46:46;;;;;;;25.33;11.38;;;14.40;99.90;;;;;;5051180;28;20045;-68
2022/09/09 02:49:25;;;;;;;26.67;11.43;;;14.20;99.90;;;;;;5048969;28;20040;-68
2022/09/09 02:52:11;;;;;;;17.48;8.93;;;14.20;99.90;;;;;;5045252;28;20045;-68
2022/09/09 02:54:38;;;;;;;24.25;10.88;;;14.40;99.90;;;;;;5055164;28;20045;-68
2022/09/09 02:57:12;;;;;;;24.58;10.57;;;14.30;99.90;;;;;;5048993;28;20044;-68
2022/09/09 02:59:38;;;;;;;24.20;10.52;;;14.20;99.90;;;;;;5053966;28;20171;-68
2022/09/09 03:02:04;;;;;;;26.35;10.52;;;14.40;99.90;;;;;;5033006;28;21825;-68
2022/09/09 03:04:31;;;;;;;25.25;10.98;;;14.30;99.90;;;;;;5038598;28;20059;-68
2022/09/09 03:06:58;;;;;;;19.90;9.35;;;14.30;99.90;;;;;;5047127;28;20075;-68
2022/09/09 03:09:23;;;;;;;28.67;11.35;;;14.20;99.90;;;;;;5054719;28;20331;-68
2022/09/09 03:11:49;;;;;;;26.48;10.60;;;14.40;99.90;;;;;;5045229;28;20470;-67
2022/09/09 03:14:16;;;;;;;18.35;9.23;;;14.40;99.90;;;;;;5042809;28;20039;-68
2022/09/09 03:16:42;;;;;;;20.92;9.27;;;14.20;99.90;;;;;;5051125;28;20051;-67
2022/09/09 03:19:09;;;;;;;19.00;9.32;;;14.20;99.90;;;;;;5045620;28;20045;-68
2022/09/09 03:21:35;;;;;;;20.65;8.90;;;14.30;99.90;;;;;;5046860;28;20044;-68
2022/09/09 03:24:03;;;;;;;16.17;8.57;;;14.50;99.90;;;;;;5067034;28;20037;-68
2022/09/09 03:26:29;;;;;;;24.27;9.77;;;14.20;99.90;;;;;;5048002;28;20045;-68
2022/09/09 03:28:55;;;;;;;21.33;8.90;;;14.40;99.90;;;;;;5058826;28;20049;-67
2022/09/09 03:31:21;;;;;;;15.65;8.30;;;14.50;99.90;;;;;;5049875;28;20070;-68
2022/09/09 03:33:46;;;;;;;16.65;8.57;;;14.30;99.90;;;;;;5049699;28;20040;-68
2022/09/09 03:36:12;;;;;;;16.05;7.95;;;14.40;99.90;;;;;;5059841;28;20066;-68
2022/09/09 03:38:37;;;;;;;18.70;8.98;;;14.50;99.90;;;;;;5044387;28;20037;-67
2022/09/09 03:41:03;;;;;;;18.55;9.07;;;14.40;99.90;;;;;;5044284;28;20037;-67
2022/09/09 03:43:29;;;;;;;21.65;9.30;;;14.40;99.90;;;;;;5041598;28;20399;-67
2022/09/09 03:45:58;;;;;;;21.98;8.90;;;14.30;99.90;;;;;;5062635;28;20112;-67
2022/09/09 03:48:25;;;;;;;23.70;8.88;;;14.50;99.90;;;;;;5049480;28;20036;-67
2022/09/09 03:50:52;;;;;;;16.85;8.48;;;14.30;99.90;;;;;;5045406;28;20136;-67
2022/09/09 03:53:21;;;;;;;21.45;8.60;;;14.40;99.90;;;;;;5038261;28;20041;-68
2022/09/09 03:55:49;;;;;;;23.98;9.20;;;14.30;99.90;;;;;;5030703;28;20272;-68
2022/09/09 03:58:18;;;;;;;16.85;8.25;;;14.40;99.90;;;;;;5052313;28;20041;-68
2022/09/09 04:00:53;;;;;;;16.52;7.82;;;14.30;99.90;;;;;;5049769;28;20037;-68
2022/09/09 04:03:18;;;;;;;18.42;8.15;;;14.10;99.90;;;;;;5045023;28;20036;-68
2022/09/09 04:05:44;;;;;;;18.05;7.68;;;14.10;99.90;;;;;;5056852;28;20040;-68
2022/09/09 04:08:11;;;;;;;27.70;8.95;;;14.30;99.90;;;;;;5047108;28;20037;-68
2022/09/09 04:10:37;;;;;;;16.10;7.80;;;14.30;99.90;;;;;;5045799;28;20063;-67
2022/09/09 04:13:04;;;;;;;21.00;9.68;;;14.20;99.90;;;;;;5058153;28;20040;-68
2022/09/09 04:15:30;;;;;;;27.05;10.25;;;14.20;99.90;;;;;;5045583;28;20044;-68
2022/09/09 04:17:56;;;;;;;26.20;10.65;;;14.10;99.90;;;;;;5047732;28;20104;-67
2022/09/09 04:20:22;;;;;;;30.58;11.35;;;14.10;99.90;;;;;;5043914;28;20045;-68
2022/09/09 04:22:48;;;;;;;26.92;10.70;;;14.20;99.90;;;;;;5046421;28;20516;-68
2022/09/09 04:25:14;;;;;;;27.35;11.57;;;14.10;99.90;;;;;;5058428;28;20058;-67
2022/09/09 04:27:39;;;;;;;39.42;13.23;;;14.20;99.90;;;;;;5054569;28;20383;-68
2022/09/09 04:30:07;;;;;;;24.55;11.60;;;14.10;99.90;;;;;;5052672;28;20809;-67
2022/09/09 04:32:36;;;;;;;26.55;12.02;;;14.10;99.90;;;;;;5066385;28;20124;-67
2022/09/09 04:35:02;;;;;;;36.80;13.27;;;14.00;99.90;;;;;;5047236;28;20143;-67
2022/09/09 04:37:28;;;;;;;28.63;12.90;;;14.00;99.90;;;;;;5046868;28;20466;-67
2022/09/09 04:39:54;;;;;;;39.33;13.70;;;14.00;99.90;;;;;;5044297;28;20102;-67
2022/09/09 04:42:19;;;;;;;35.13;13.40;;;14.10;99.90;;;;;;5049283;28;20488;-68
2022/09/09 04:44:45;;;;;;;28.95;12.07;;;13.90;99.90;;;;;;5044761;28;20032;-67
2022/09/09 04:47:11;;;;;;;24.98;12.18;;;13.90;99.90;;;;;;5041184;28;20136;-67
2022/09/09 04:49:38;;;;;;;25.60;11.68;;;13.90;99.90;;;;;;5042608;28;20403;-68
2022/09/09 04:52:04;;;;;;;36.17;12.55;;;14.00;99.90;;;;;;5057936;28;20054;-67
2022/09/09 04:54:30;;;;;;;34.75;12.88;;;13.90;99.90;;;;;;5041985;28;20044;-68
2022/09/09 04:56:55;;;;;;;31.10;12.55;;;13.90;99.90;;;;;;5048168;28;20053;-68
2022/09/09 04:59:21;;;;;;;29.80;11.25;;;13.80;99.90;;;;;;5049290;28;20101;-67
2022/09/09 05:01:48;;;;;;;21.73;11.18;;;13.90;99.90;;;;;;5045475;28;20040;-68
2022/09/09 05:04:19;;;;;;;23.00;11.07;;;14.00;99.90;;;;;;5057939;28;20033;-68
2022/09/09 05:06:45;;;;;;;20.88;9.80;;;13.80;99.90;;;;;;5048072;28;20060;-68
2022/09/09 05:09:11;;;;;;;22.40;10.80;;;13.90;99.90;;;;;;5040499;28;20036;-68
2022/09/09 05:11:37;;;;;;;28.63;11.93;;;13.70;99.90;;;;;;5040774;28;20380;-67
2022/09/09 05:14:04;;;;;;;18.70;9.43;;;13.90;99.90;;;;;;5046570;28;20049;-66
2022/09/09 05:16:30;;;;;;;23.00;10.23;;;13.70;99.90;;;;;;5048824;28;20127;-67
2022/09/09 05:18:55;;;;;;;23.15;10.95;;;13.80;99.90;;;;;;5056997;28;20446;-67
2022/09/09 05:21:23;;;;;;;22.60;10.55;;;13.80;99.90;;;;;;5044016;28;20053;-67
2022/09/09 05:23:50;;;;;;;23.27;10.57;;;13.70;99.90;;;;;;5045305;28;20412;-66
2022/09/09 05:26:18;;;;;;;19.98;9.77;;;13.80;99.90;;;;;;5043769;28;20032;-67
2022/09/09 05:28:44;;;;;;;15.13;9.20;;;13.60;99.90;;;;;;5044491;28;20037;-67
2022/09/09 05:31:12;;;;;;;24.80;11.20;;;13.80;99.90;;;;;;5053767;28;20071;-67
2022/09/09 05:33:40;;;;;;;20.83;11.00;;;13.90;99.90;;;;;;5042413;28;20044;-67
2022/09/09 05:36:08;;;;;;;17.40;10.38;;;13.70;99.90;;;;;;5047126;28;20082;-67
2022/09/09 05:38:34;;;;;;;20.35;10.25;;;13.90;99.90;;;;;;5043136;28;20037;-67
2022/09/09 05:41:02;;;;;;;20.92;10.57;;;13.80;99.90;;;;;;5040046;28;20048;-68
2022/09/09 05:43:29;;;;;;;22.10;11.55;;;13.80;99.90;;;;;;5047917;28;20471;-68
2022/09/09 05:46:04;;;;;;;25.67;12.20;;;13.90;99.90;;;;;;5048398;28;20101;-67
2022/09/09 05:48:32;;;;;;;28.40;12.80;;;14.00;99.90;;;;;;5061435;28;20040;-69
2022/09/09 05:50:59;;;;;;;19.55;10.40;;;13.90;99.90;;;;;;5045525;28;20203;-68
2022/09/09 05:53:32;;;;;;;24.40;11.13;;;13.80;99.90;;;;;;5046811;28;20377;-67
2022/09/09 05:56:14;;;;;;;19.15;10.50;;;13.80;99.90;;;;;;5055368;28;20513;-68
2022/09/09 05:58:40;;;;;;;33.75;12.27;;;13.80;99.90;;;;;;5062339;28;20072;-68
2022/09/09 06:01:08;;;;;;;29.33;11.68;;;13.90;99.90;;;;;;5061890;28;20040;-67
2022/09/09 06:03:39;;;;;;;23.35;11.27;;;13.80;99.90;;;;;;5059764;28;20402;-68
2022/09/09 06:06:07;;;;;;;19.75;10.10;;;13.90;99.90;;;;;;5052888;28;20064;-68
2022/09/09 06:08:34;;;;;;;24.48;10.07;;;13.90;99.90;;;;;;5060047;28;20048;-68
2022/09/09 06:11:14;;;;;;;22.77;11.32;;;14.00;99.90;;;;;;5057929;28;20059;-68
2022/09/09 06:13:41;;;;;;;22.92;10.98;;;14.00;99.90;;;;;;5046884;28;20033;-68
2022/09/09 06:16:11;;;;;;;16.95;10.15;;;13.80;99.90;;;;;;5053728;28;20494;-68
2022/09/09 06:18:38;;;;;;;17.83;9.82;;;14.00;99.90;;;;;;5053384;28;20040;-68
2022/09/09 06:21:06;;;;;;;17.85;10.73;;;13.90;99.90;;;;;;5072235;28;20040;-68
2022/09/09 06:23:34;;;;;;;20.27;10.20;;;13.90;99.90;;;;;;5058744;28;20043;-68
2022/09/09 06:26:06;;;;;;;23.13;10.65;;;14.10;99.90;;;;;;5064195;28;20069;-69
2022/09/09 06:28:36;;;;;;;26.48;11.48;;;14.20;99.90;;;;;;5045998;28;20063;-69
2022/09/09 06:31:12;;;;;;;18.30;10.45;;;14.20;99.90;;;;;;5059880;28;20502;-69
2022/09/09 06:33:40;;;;;;;19.00;10.73;;;14.30;99.90;;;;;;5054806;28;20112;-69
2022/09/09 06:36:11;;;;;;;20.95;10.80;;;14.30;99.90;;;;;;5056504;28;20080;-70
2022/09/09 06:38:37;;;;;;;16.17;9.52;;;14.20;99.90;;;;;;5053429;28;20119;-69
2022/09/09 06:41:03;;;;;;;19.65;9.85;;;14.20;99.90;;;;;;5056215;28;20080;-71
2022/09/09 06:43:29;;;;;;;24.08;11.00;;;14.20;99.90;;;;;;5056092;28;20040;-69
2022/09/09 06:45:59;;;;;;;17.30;9.45;;;14.50;99.90;;;;;;5049148;28;20037;-70
2022/09/09 06:48:28;;;;;;;22.77;10.20;;;14.60;99.90;;;;;;5054683;28;20034;-70
2022/09/09 06:51:21;;;;;;;21.17;9.75;;;14.60;99.90;;;;;;5058533;28;20051;-70
2022/09/09 06:53:49;;;;;;;20.85;9.98;;;14.50;99.90;;;;;;5054931;28;20048;-71
2022/09/09 06:56:24;;;;;;;17.02;9.77;;;14.50;99.90;;;;;;5066026;28;20094;-71
2022/09/09 06:58:52;;;;;;;16.50;9.00;;;14.70;99.90;;;;;;5060125;28;20044;-70
2022/09/09 07:01:30;;;;;;;19.80;10.35;;;14.90;99.90;;;;;;5057479;28;20041;-71
2022/09/09 07:03:58;;;;;;;20.45;10.00;;;14.90;99.90;;;;;;5057872;28;20119;-71
2022/09/09 07:06:30;;;;;;;17.15;9.60;;;14.90;99.90;;;;;;5058202;28;20041;-71
2022/09/09 07:09:00;;;;;;;21.83;9.37;;;15.00;99.90;;;;;;5063631;28;20044;-73
2022/09/09 07:11:29;;;;;;;17.90;9.38;;;15.30;99.90;;;;;;5057687;28;20177;-72
2022/09/09 07:13:56;;;;;;;19.88;9.85;;;15.20;99.90;;;;;;5067134;28;20044;-74
2022/09/09 07:16:25;;;;;;;23.60;10.15;;;15.40;99.90;;;;;;5053159;28;20048;-74
2022/09/09 07:18:52;;;;;;;15.35;9.32;;;15.50;99.90;;;;;;5054063;28;20056;-75
2022/09/09 07:21:18;;;;;;;19.35;10.00;;;15.50;99.90;;;;;;5057697;28;20036;-74
2022/09/09 07:23:44;;;;;;;15.88;8.82;;;15.50;99.90;;;;;;5058825;28;20040;-75
2022/09/09 07:26:13;;;;;;;19.13;9.13;;;15.70;99.90;;;;;;5055780;28;20048;-71
2022/09/09 07:28:39;;;;;;;18.55;9.30;;;15.50;99.90;;;;;;5056391;28;20200;-74
2022/09/09 07:31:05;;;;;;;16.25;9.35;;;15.60;99.90;;;;;;5062525;28;20040;-74
2022/09/09 07:33:33;;;;;;;20.50;9.27;;;15.80;99.90;;;;;;5078574;28;20064;-74
2022/09/09 07:36:21;;;;;;;18.33;9.77;;;15.80;99.90;;;;;;5077803;28;20033;-74
2022/09/09 07:38:51;;;;;;;17.08;8.90;;;15.80;99.90;;;;;;5057960;28;20120;-77
2022/09/09 07:41:30;;;;;;;19.40;9.90;;;15.70;99.90;;;;;;5055955;28;20546;-75
2022/09/09 07:43:55;;;;;;;21.13;10.85;;;15.70;99.90;;;;;;5070795;28;20032;-73
2022/09/09 07:46:23;;;;;;;21.33;11.05;;;16.00;99.90;;;;;;5057381;28;20044;-75
2022/09/09 07:48:53;;;;;;;18.10;10.30;;;16.00;99.90;;;;;;5036915;28;21242;-76
2022/09/09 07:51:24;;;;;;;13.57;9.32;;;16.10;99.90;;;;;;5050124;28;20043;-77
2022/09/09 07:53:59;;;;;;;19.13;9.63;;;16.00;99.90;;;;;;5054870;28;20040;-75
2022/09/09 07:56:26;;;;;;;14.32;8.27;;;16.10;99.90;;;;;;5049048;28;20032;-74
2022/09/09 07:58:53;;;;;;;14.52;8.57;;;16.20;99.90;;;;;;5047086;28;20079;-75
2022/09/09 08:01:32;;;;;;;19.40;8.50;;;16.00;99.90;;;;;;5060049;28;20419;-74
2022/09/09 08:04:03;;;;;;;17.52;8.00;;;16.10;99.90;;;;;;5057953;28;20049;-76
2022/09/09 08:06:35;;;;;;;16.73;8.63;;;16.20;99.90;;;;;;5052268;28;20063;-74
2022/09/09 08:09:00;;;;;;;19.23;9.33;;;16.20;99.90;;;;;;5053858;28;21577;-73
2022/09/09 08:11:28;;;;;;;14.10;8.32;;;16.30;99.90;;;;;;5068389;28;20483;-73
2022/09/09 08:13:54;;;;;;;18.52;8.85;;;16.40;99.90;;;;;;5054661;28;20047;-75
2022/09/09 08:16:23;;;;;;;12.80;7.57;;;16.40;99.90;;;;;;5058241;28;20051;-78
2022/09/09 08:18:50;;;;;;;18.58;7.85;;;16.70;99.90;;;;;;5055577;28;20045;-72
2022/09/09 08:21:21;;;;;;;19.23;7.93;;;16.60;99.90;;;;;;5056524;28;20123;-76
2022/09/09 08:23:48;;;;;;;18.02;7.30;;;16.80;99.90;;;;;;5055625;28;20045;-73
2022/09/09 08:26:21;;;;;;;16.95;7.78;;;16.80;99.90;;;;;;5056330;28;20044;-72
2022/09/09 08:28:47;;;;;;;13.75;6.65;;;16.90;99.90;;;;;;5068445;28;20032;-78
2022/09/09 08:31:17;;;;;;;17.25;7.60;;;16.90;99.90;;;;;;5052427;28;20127;-74
2022/09/09 08:33:45;;;;;;;17.35;8.05;;;16.80;99.90;;;;;;5061235;28;20399;-78
2022/09/09 08:36:14;;;;;;;15.25;6.93;;;16.90;99.90;;;;;;5049940;28;20037;-73
2022/09/09 08:38:41;;;;;;;14.63;6.75;;;16.80;99.90;;;;;;5059749;28;20119;-75
2022/09/09 08:41:36;;;;;;;17.83;6.80;;;17.00;99.90;;;;;;5055774;28;20040;-75
2022/09/09 08:44:37;;;;;;;15.07;5.90;;;17.00;99.90;;;;;;5038042;28;20056;-75
2022/09/09 08:47:22;;;;;;;12.38;6.50;;;17.00;99.90;;;;;;5039245;28;20083;-77
2022/09/09 08:50:14;;;;;;;12.23;6.50;;;17.10;99.90;;;;;;5055397;28;20040;-75
2022/09/09 08:53:10;;;;;;;16.42;6.10;;;17.20;99.90;;;;;;5053862;28;20572;-75
2022/09/09 08:55:49;;;;;;;13.23;6.28;;;17.10;99.90;;;;;;5056311;28;20049;-73
2022/09/09 08:58:21;;;;;;;12.25;6.05;;;17.20;99.90;;;;;;5068251;28;20036;-73
2022/09/09 09:01:08;;;;;;;15.48;6.63;;;17.30;99.90;;;;;;5052148;28;20042;-74
2022/09/09 09:03:50;;;;;;;15.77;6.35;;;17.30;99.90;;;;;;5044904;28;20041;-75
2022/09/09 09:06:36;;;;;;;15.50;6.07;;;17.30;99.90;;;;;;5061569;28;20449;-75
2022/09/09 09:09:23;;;;;;;14.38;5.72;;;17.20;99.90;;;;;;5059794;28;20299;-73
2022/09/09 09:11:54;;;;;;;12.60;5.25;;;17.30;99.90;;;;;;5055525;28;20282;-74
2022/09/09 09:14:24;;;;;;;12.20;5.00;;;17.30;99.90;;;;;;5054347;28;20049;-76
2022/09/09 09:16:56;;;;;;;14.10;5.70;;;17.10;99.90;;;;;;5052441;28;20033;-75
2022/09/09 09:19:23;;;;;;;18.55;5.68;;;17.20;99.90;;;;;;5050464;28;20045;-75
2022/09/09 09:22:03;;;;;;;19.40;6.90;;;17.20;99.90;;;;;;5057834;28;20372;-74
2022/09/09 09:24:42;;;;;;;12.32;6.22;;;17.20;99.90;;;;;;5060017;28;20396;-74
2022/09/09 09:27:18;;;;;;;13.07;5.50;;;17.30;99.90;;;;;;5074713;28;20045;-75
2022/09/09 09:29:44;;;;;;;11.90;5.70;;;17.40;99.90;;;;;;5052321;28;20168;-74
2022/09/09 09:32:16;;;;;;;13.10;5.70;;;17.40;99.90;;;;;;5062511;28;20405;-74
2022/09/09 09:34:41;;;;;;;15.48;5.15;;;17.30;99.90;;;;;;5070538;28;20523;-75
2022/09/09 09:37:19;;;;;;;12.18;5.20;;;17.30;99.90;;;;;;5056361;28;20041;-76
2022/09/09 09:39:45;;;;;;;16.00;5.70;;;17.30;99.90;;;;;;5059276;28;20486;-74
2022/09/09 09:42:17;;;;;;;13.27;5.03;;;17.40;99.90;;;;;;5058704;28;20047;-76
2022/09/09 09:44:43;;;;;;;14.77;5.10;;;17.40;99.90;;;;;;5061027;28;20098;-74
2022/09/09 09:47:21;;;;;;;12.55;4.82;;;17.50;99.90;;;;;;5079284;28;20375;-75
2022/09/09 09:49:59;;;;;;;10.27;4.97;;;17.60;99.90;;;;;;5061339;28;20028;-74
2022/09/09 09:52:30;;;;;;;13.00;4.88;;;17.60;99.90;;;;;;5059213;28;20059;-73
2022/09/09 09:54:57;;;;;;;14.00;5.07;;;17.80;99.90;;;;;;5061526;28;20039;-76
2022/09/09 09:57:30;;;;;;;13.00;4.50;;;18.10;99.90;;;;;;5058772;28;20049;-75
2022/09/09 10:00:13;;;;;;;10.63;4.50;;;18.10;99.90;;;;;;5072872;28;20119;-74
2022/09/09 10:02:43;;;;;;;11.50;4.20;;;17.90;99.90;;;;;;5059655;28;20529;-74
2022/09/09 10:05:25;;;;;;;11.80;4.15;;;18.00;99.90;;;;;;5060023;28;20393;-75
2022/09/09 10:08:26;;;;;;;;;;;17.90;99.90;;;;;;5053963;28;20041;-75
2022/09/09 10:10:56;;;;;;;10.13;3.70;;;18.00;99.90;;;;;;4978253;28;20118;-72
2022/09/09 10:13:21;;;;;;;12.13;3.97;;;17.90;99.90;;;;;;5041467;28;20592;-76
2022/09/09 10:16:26;;;;;;;9.18;3.83;;;17.80;99.90;;;;;;5060152;28;20142;-74
2022/09/09 10:19:08;;;;;;;15.32;4.32;;;17.80;99.90;;;;;;5054264;28;20402;-73
2022/09/09 10:21:43;;;;;;;;;;;17.90;99.90;;;;;;5053573;28;20064;-73
2022/09/09 10:24:35;;;;;;;13.77;4.47;;;17.90;99.90;;;;;;5035287;28;19916;-75
2022/09/09 10:27:12;;;;;;;11.88;4.25;;;18.00;99.90;;;;;;5052070;28;20049;-75
2022/09/09 10:29:44;;;;;;;12.80;4.55;;;18.00;99.90;;;;;;5054508;28;20127;-74
2022/09/09 10:32:12;;;;;;;11.50;4.50;;;17.90;99.90;;;;;;5056801;28;20041;-74
2022/09/09 10:34:49;;;;;;;10.98;4.45;;;17.90;99.90;;;;;;5053263;28;20045;-74
2022/09/09 10:37:46;;;;;;;9.07;4.10;;;17.90;99.90;;;;;;5056585;28;20109;-75
2022/09/09 10:40:21;;;;;;;10.80;4.47;;;17.90;99.90;;;;;;5036170;28;20485;-74
2022/09/09 10:42:47;;;;;;;11.27;4.15;;;17.90;99.90;;;;;;5048469;28;20395;-70
2022/09/09 10:45:25;;;;;;;12.02;3.90;;;17.80;99.90;;;;;;5053058;28;20048;-74
2022/09/09 10:48:23;;;;;;;13.55;3.50;;;17.70;99.90;;;;;;5067623;28;20045;-71
2022/09/09 10:51:22;;;;;;;12.20;3.75;;;17.70;99.90;;;;;;5051691;28;20127;-74
2022/09/09 10:54:03;;;;;;;10.05;3.50;;;17.60;99.90;;;;;;5035004;28;20405;-72
2022/09/09 10:56:30;;;;;;;8.70;2.90;;;17.80;99.90;;;;;;5073252;28;20052;-74
2022/09/09 10:59:09;;;;;;;9.20;3.42;;;17.70;99.90;;;;;;5056616;28;20603;-74
2022/09/09 11:01:57;;;;;;;8.73;3.30;;;17.80;99.90;;;;;;5055442;28;20077;-74
2022/09/09 11:04:30;;;;;;;8.75;3.28;;;17.70;99.90;;;;;;5049883;28;20055;-74
2022/09/09 11:06:56;;;;;;;12.93;3.17;;;17.70;99.90;;;;;;5039935;28;20064;-73
2022/09/09 11:09:26;;;;;;;9.43;3.65;;;17.50;99.90;;;;;;5056413;28;20049;-73
2022/09/09 11:11:57;;;;;;;11.88;3.60;;;17.50;99.90;;;;;;5036074;28;20056;-73
2022/09/09 11:14:28;;;;;;;8.25;3.83;;;17.40;99.90;;;;;;5044065;28;20103;-73
2022/09/09 11:16:56;;;;;;;13.20;3.70;;;17.40;99.90;;;;;;5048123;28;20045;-72
2022/09/09 11:19:27;;;;;;;12.80;3.72;;;17.40;99.90;;;;;;5058752;28;20053;-73
2022/09/09 11:21:55;;;;;;;11.77;3.42;;;17.30;99.90;;;;;;5049627;28;20048;-74
2022/09/09 11:24:41;;;;;;;12.20;3.50;;;17.40;99.90;;;;;;5055812;28;20426;-76
2022/09/09 11:27:18;;;;;;;13.88;3.70;;;17.50;99.90;;;;;;5064976;28;20437;-74
2022/09/09 11:30:00;;;;;;;11.70;3.55;;;17.70;99.90;;;;;;5046888;28;20041;-74
2022/09/09 11:32:40;;;;;;;9.95;3.40;;;17.80;99.90;;;;;;5044551;28;20040;-72
2022/09/09 11:35:24;;;;;;;8.30;2.78;;;18.10;99.90;;;;;;5043895;28;20048;-75
2022/09/09 11:38:01;;;;;;;10.10;3.40;;;18.20;99.90;;;;;;5059912;28;20111;-69
2022/09/09 11:40:28;;;;;;;7.38;2.63;;;18.30;99.90;;;;;;5044393;28;20312;-69
2022/09/09 11:43:21;;;;;;;9.23;2.95;;;18.50;99.90;;;;;;5062981;28;20072;-71
2022/09/09 11:45:59;;;;;;;8.27;2.70;;;18.70;99.90;;;;;;5061070;28;20387;-70
2022/09/09 11:48:44;;;;;;;5.78;2.88;;;18.90;99.90;;;;;;5049948;28;20067;-70
2022/09/09 11:51:12;;;;;;;8.60;2.88;;;19.10;99.90;;;;;;5038211;28;20041;-71
2022/09/09 11:54:02;;;;;;;9.80;3.50;;;19.20;99.90;;;;;;5061000;28;20075;-74
2022/09/09 11:56:46;;;;;;;11.68;3.47;;;19.10;99.90;;;;;;5056941;28;20050;-71
2022/09/09 11:59:37;;;;;;;9.52;3.00;;;19.20;99.90;;;;;;5058113;28;20045;-74
2022/09/09 12:02:11;;;;;;;7.63;2.83;;;19.20;99.90;;;;;;5054085;28;20052;-73
2022/09/09 12:04:48;;;;;;;9.45;3.08;;;19.10;99.90;;;;;;5059007;28;20040;-70
2022/09/09 12:07:35;;;;;;;14.90;3.38;;;19.20;99.90;;;;;;5057024;28;20087;-75
2022/09/09 12:10:47;;;;;;;8.35;3.05;;;19.00;99.90;;;;;;5057919;28;20048;-73
2022/09/09 12:13:24;;;;;;;8.80;3.10;;;19.00;99.90;;;;;;5054635;28;20052;-67
2022/09/09 12:15:53;;;;;;;11.45;3.13;;;18.90;99.90;;;;;;5052825;28;20074;-70
2022/09/09 12:18:39;;;;;;;7.40;2.67;;;18.80;99.90;;;;;;5054110;28;20067;-71
2022/09/09 12:21:37;;;;;;;9.13;2.70;;;18.80;99.90;;;;;;5058318;28;20041;-70
2022/09/09 12:24:10;;;;;;;9.65;3.03;;;18.80;99.90;;;;;;5047157;28;20029;-69
2022/09/09 12:26:45;;;;;;;9.93;2.65;;;18.70;99.90;;;;;;5049495;28;20039;-74
2022/09/09 12:29:27;;;;;;;10.95;3.17;;;18.70;99.90;;;;;;5045231;28;20052;-70
2022/09/09 12:32:07;;;;;;;5.18;2.50;;;18.50;99.90;;;;;;5045152;28;20171;-73
2022/09/09 12:34:39;;;;;;;6.45;3.17;;;18.30;99.90;;;;;;5050938;28;20403;-73
2022/09/09 12:37:18;;;;;;;10.15;3.95;;;18.40;99.90;;;;;;5059395;28;20046;-74
2022/09/09 12:39:56;;;;;;;9.20;3.50;;;18.50;99.90;;;;;;5053292;28;20053;-70
2022/09/09 12:42:23;;;;;;;10.05;3.20;;;18.80;99.90;;;;;;5051350;28;20097;-75
2022/09/09 12:44:54;;;;;;;8.48;3.40;;;18.80;99.90;;;;;;5047704;28;20047;-73
2022/09/09 12:47:25;;;;;;;7.38;2.95;;;18.90;99.90;;;;;;5050460;28;20044;-70
2022/09/09 12:49:51;;;;;;;7.72;2.53;;;18.80;99.90;;;;;;5059110;28;20495;-73
2022/09/09 12:52:29;;;;;;;9.38;2.92;;;18.90;99.90;;;;;;5046951;28;20443;-72
2022/09/09 12:54:57;;;;;;;7.07;2.58;;;18.70;99.90;;;;;;5047601;28;20443;-71
2022/09/09 12:57:25;;;;;;;8.75;2.92;;;18.70;99.90;;;;;;5047141;28;20045;-70
2022/09/09 12:59:51;;;;;;;8.02;2.63;;;18.60;99.90;;;;;;5053513;28;20373;-74
2022/09/09 13:02:19;;;;;;;7.68;2.53;;;18.60;99.90;;;;;;5051679;28;20033;-70
2022/09/09 13:04:46;;;;;;;5.25;2.50;;;18.60;99.90;;;;;;5069108;28;20419;-73